createdAt,value
2023-01-22T00:00:24.214Z,0.20
2023-01-22T00:02:51.965Z,0.20
2023-01-22T00:05:18.732Z,0.20
2023-01-22T00:07:45.618Z,0.20
2023-01-22T00:10:12.734Z,0.20
2023-01-22T00:12:39.695Z,0.30
2023-01-22T00:15:06.645Z,0.20
2023-01-22T00:17:33.335Z,0.30
2023-01-22T00:20:00.036Z,0.20
2023-01-22T00:22:26.694Z,0.30
2023-01-22T00:24:53.706Z,0.30
2023-01-22T00:27:20.323Z,0.20
2023-01-22T00:29:47.651Z,0.30
2023-01-22T00:32:14.496Z,0.30
2023-01-22T00:34:41.259Z,0.30
2023-01-22T00:37:07.935Z,0.30
2023-01-22T00:39:34.571Z,0.30
2023-01-22T00:42:01.324Z,0.30
2023-01-22T00:44:27.938Z,0.30
2023-01-22T00:46:54.620Z,0.30
2023-01-22T00:49:21.271Z,0.30
2023-01-22T00:51:48.337Z,0.30
2023-01-22T00:54:14.990Z,0.40
2023-01-22T00:56:41.625Z,0.30
2023-01-22T00:59:10.575Z,0.30
2023-01-22T01:01:38.609Z,0.30
2023-01-22T01:04:05.536Z,0.30
2023-01-22T01:06:32.564Z,0.30
2023-01-22T01:08:59.364Z,0.30
2023-01-22T01:11:26.280Z,0.30
2023-01-22T01:13:53.409Z,0.30
2023-01-22T01:16:30.692Z,0.30
2023-01-22T01:19:05.304Z,0.30
2023-01-22T01:21:32.242Z,0.30
2023-01-22T01:23:59.351Z,0.30
2023-01-22T01:26:26.181Z,0.30
2023-01-22T01:28:53.190Z,0.30
2023-01-22T01:31:21.207Z,0.30
2023-01-22T01:33:49.158Z,0.30
2023-01-22T01:36:35.295Z,0.40
2023-01-22T01:39:03.278Z,0.30
2023-01-22T01:41:30.154Z,0.30
2023-01-22T01:44:07.280Z,0.30
2023-01-22T01:46:41.627Z,0.30
2023-01-22T01:49:14.657Z,0.30
2023-01-22T01:51:41.300Z,0.30
2023-01-22T01:54:07.980Z,0.30
2023-01-22T01:56:37.025Z,0.30
2023-01-22T01:59:05.632Z,0.30
2023-01-22T02:01:33.272Z,0.30
2023-01-22T02:04:00.609Z,0.30
2023-01-22T02:06:27.358Z,0.30
2023-01-22T02:08:55.178Z,0.30
2023-01-22T02:11:22.505Z,0.40
2023-01-22T02:13:51.611Z,0.30
2023-01-22T02:16:18.642Z,0.30
2023-01-22T02:18:45.391Z,0.30
2023-01-22T02:21:29.271Z,0.40
2023-01-22T02:23:56.047Z,0.40
2023-01-22T02:26:22.778Z,0.30
2023-01-22T02:28:50.175Z,0.40
2023-01-22T02:31:17.073Z,0.30
2023-01-22T02:33:43.876Z,0.40
2023-01-22T02:36:10.759Z,0.40
2023-01-22T02:38:37.425Z,0.40
2023-01-22T02:41:05.340Z,0.40
2023-01-22T02:43:32.755Z,0.40
2023-01-22T02:45:59.475Z,0.40
2023-01-22T02:48:26.266Z,0.40
2023-01-22T02:50:52.953Z,0.40
2023-01-22T02:53:19.648Z,0.40
2023-01-22T02:55:49.291Z,0.40
2023-01-22T02:58:17.241Z,0.40
2023-01-22T03:00:44.698Z,0.40
2023-01-22T03:03:15.398Z,0.40
2023-01-22T03:05:52.273Z,0.40
2023-01-22T03:08:19.213Z,0.40
2023-01-22T03:10:45.913Z,0.40
2023-01-22T03:13:31.825Z,0.40
2023-01-22T03:16:17.327Z,0.40
2023-01-22T03:19:03.419Z,0.40
2023-01-22T03:21:30.123Z,0.40
2023-01-22T03:23:56.840Z,0.40
2023-01-22T03:26:23.829Z,0.40
2023-01-22T03:28:51.174Z,0.40
2023-01-22T03:31:18.213Z,0.40
2023-01-22T03:33:44.966Z,0.40
2023-01-22T03:36:13.623Z,0.40
2023-01-22T03:38:45.508Z,0.40
2023-01-22T03:41:17.167Z,0.40
2023-01-22T03:43:46.086Z,0.40
2023-01-22T03:46:18.222Z,0.40
2023-01-22T03:48:50.334Z,0.40
2023-01-22T03:51:17.253Z,0.40
2023-01-22T03:53:44.601Z,0.40
2023-01-22T03:56:13.015Z,0.40
2023-01-22T03:58:39.946Z,0.40
2023-01-22T04:01:08.477Z,0.40
2023-01-22T04:03:35.527Z,0.40
2023-01-22T04:06:03.402Z,0.40
2023-01-22T04:08:31.377Z,0.40
2023-01-22T04:10:59.159Z,0.40
2023-01-22T04:13:27.828Z,0.40
2023-01-22T04:15:54.840Z,0.40
2023-01-22T04:18:50.683Z,0.40
2023-01-22T04:21:36.051Z,0.40
2023-01-22T04:24:05.162Z,0.50
2023-01-22T04:26:32.331Z,0.50
2023-01-22T04:29:01.414Z,0.40
2023-01-22T04:31:28.251Z,0.40
2023-01-22T04:34:00.575Z,0.40
2023-01-22T04:36:30.805Z,0.40
2023-01-22T04:38:57.477Z,0.40
2023-01-22T04:41:24.477Z,0.40
2023-01-22T04:43:51.983Z,0.40
2023-01-22T04:46:21.551Z,0.40
2023-01-22T04:48:48.304Z,0.40
2023-01-22T04:51:16.312Z,0.50
2023-01-22T04:53:44.743Z,0.40
2023-01-22T04:56:11.589Z,0.50
2023-01-22T04:58:39.107Z,0.40
2023-01-22T05:01:06.356Z,0.40
2023-01-22T05:03:33.299Z,0.40
2023-01-22T05:06:04.829Z,0.40
2023-01-22T05:08:34.531Z,0.40
2023-01-22T05:11:02.635Z,0.50
2023-01-22T05:13:37.430Z,0.40
2023-01-22T05:16:04.220Z,0.50
2023-01-22T05:18:32.383Z,0.50
2023-01-22T05:21:00.586Z,0.50
2023-01-22T05:23:30.108Z,0.50
2023-01-22T05:25:57.533Z,0.40
2023-01-22T05:28:37.365Z,0.50
2023-01-22T05:31:18.238Z,0.50
2023-01-22T05:33:56.248Z,0.40
2023-01-22T05:36:23.103Z,0.50
2023-01-22T05:38:52.785Z,0.50
2023-01-22T05:41:20.671Z,0.50
2023-01-22T05:43:48.128Z,0.50
2023-01-22T05:46:19.777Z,0.50
2023-01-22T05:49:09.923Z,0.50
2023-01-22T05:51:36.661Z,0.50
2023-01-22T05:54:03.404Z,0.40
2023-01-22T05:56:33.196Z,0.50
2023-01-22T05:58:59.945Z,0.50
2023-01-22T06:01:26.750Z,0.50
2023-01-22T06:03:56.316Z,0.50
2023-01-22T06:06:24.851Z,0.50
2023-01-22T06:08:52.867Z,0.50
2023-01-22T06:11:21.603Z,0.50
2023-01-22T06:13:48.592Z,0.50
2023-01-22T06:16:19.578Z,0.50
2023-01-22T06:19:04.936Z,0.50
2023-01-22T06:21:39.930Z,0.50
2023-01-22T06:24:07.918Z,0.50
2023-01-22T06:26:34.590Z,0.50
2023-01-22T06:29:02.132Z,0.50
2023-01-22T06:31:29.801Z,0.50
2023-01-22T06:33:57.163Z,0.50
2023-01-22T06:36:23.852Z,0.50
2023-01-22T06:38:50.607Z,0.40
2023-01-22T06:41:27.250Z,0.40
2023-01-22T06:43:58.828Z,0.50
2023-01-22T06:46:25.606Z,0.50
2023-01-22T06:49:01.588Z,0.50
2023-01-22T06:51:29.531Z,0.50
2023-01-22T06:53:56.316Z,0.50
2023-01-22T06:56:23.419Z,0.50
2023-01-22T06:58:50.998Z,0.50
2023-01-22T07:01:17.807Z,0.50
2023-01-22T07:03:46.099Z,0.50
2023-01-22T07:06:13.193Z,0.50
2023-01-22T07:08:41.130Z,0.50
2023-01-22T07:11:08.121Z,0.50
2023-01-22T07:13:34.778Z,0.50
2023-01-22T07:16:02.937Z,0.50
2023-01-22T07:18:29.782Z,0.60
2023-01-22T07:21:00.158Z,0.60
2023-01-22T07:23:26.802Z,0.60
2023-01-22T07:25:53.512Z,0.60
2023-01-22T07:28:20.203Z,0.60
2023-01-22T07:30:47.061Z,0.60
2023-01-22T07:33:14.457Z,0.60
2023-01-22T07:35:41.173Z,0.60
2023-01-22T07:38:08.373Z,0.70
2023-01-22T07:40:35.217Z,0.70
2023-01-22T07:43:05.002Z,0.70
2023-01-22T07:45:33.701Z,0.70
2023-01-22T07:48:00.477Z,0.80
2023-01-22T07:50:28.332Z,0.80
2023-01-22T07:52:55.442Z,0.80
2023-01-22T07:55:22.292Z,0.80
2023-01-22T07:57:48.970Z,0.80
2023-01-22T08:00:16.228Z,0.80
2023-01-22T08:02:43.181Z,0.80
2023-01-22T08:05:10.742Z,0.80
2023-01-22T08:07:37.472Z,0.80
2023-01-22T08:10:05.304Z,0.80
2023-01-22T08:12:32.051Z,0.80
2023-01-22T08:14:58.809Z,0.80
2023-01-22T08:17:25.542Z,0.90
2023-01-22T08:19:52.169Z,0.90
2023-01-22T08:22:18.871Z,1.00
2023-01-22T08:24:45.494Z,1.00
2023-01-22T08:27:12.113Z,1.00
2023-01-22T08:29:38.782Z,1.00
2023-01-22T08:32:06.948Z,1.00
2023-01-22T08:34:34.072Z,1.00
2023-01-22T08:37:00.668Z,1.10
2023-01-22T08:39:27.341Z,1.10
2023-01-22T08:41:57.545Z,1.10
2023-01-22T08:44:24.589Z,1.10
2023-01-22T08:46:52.357Z,1.10
2023-01-22T08:49:21.426Z,1.10
2023-01-22T08:51:50.282Z,1.10
2023-01-22T08:54:17.565Z,1.00
2023-01-22T08:56:44.196Z,1.10
2023-01-22T08:59:10.846Z,1.00
2023-01-22T09:01:37.494Z,1.10
2023-01-22T09:04:05.707Z,1.10
2023-01-22T09:06:32.912Z,1.10
2023-01-22T09:09:01.654Z,1.10
2023-01-22T09:11:29.598Z,1.10
2023-01-22T09:13:57.164Z,1.10
2023-01-22T09:16:24.410Z,1.10
2023-01-22T09:18:51.069Z,1.10
2023-01-22T09:21:17.733Z,1.10
2023-01-22T09:23:44.532Z,1.10
2023-01-22T09:26:11.660Z,1.10
2023-01-22T09:28:38.606Z,1.10
2023-01-22T09:31:05.308Z,1.10
2023-01-22T09:33:32.092Z,1.10
2023-01-22T09:36:25.161Z,1.10
2023-01-22T09:38:51.930Z,1.10
2023-01-22T09:41:38.574Z,1.10
2023-01-22T09:44:16.209Z,1.20
2023-01-22T09:46:45.746Z,1.20
2023-01-22T09:49:15.544Z,1.20
2023-01-22T09:51:44.065Z,1.30
2023-01-22T09:54:13.022Z,1.30
2023-01-22T09:56:44.710Z,1.30
2023-01-22T09:59:14.950Z,1.30
2023-01-22T10:01:42.500Z,1.30
2023-01-22T10:04:18.545Z,1.30
2023-01-22T10:06:46.138Z,1.30
2023-01-22T10:09:15.236Z,1.30
2023-01-22T10:11:43.384Z,1.30
2023-01-22T10:14:17.035Z,1.20
2023-01-22T10:16:45.596Z,1.20
2023-01-22T10:19:18.148Z,1.30
2023-01-22T10:21:49.742Z,1.30
2023-01-22T10:24:16.433Z,1.30
2023-01-22T10:26:43.080Z,1.30
2023-01-22T10:29:12.701Z,1.30
2023-01-22T10:31:44.000Z,1.30
2023-01-22T10:34:15.658Z,1.30
2023-01-22T10:36:48.535Z,1.30
2023-01-22T10:39:16.140Z,1.30
2023-01-22T10:41:43.402Z,1.30
2023-01-22T10:44:17.359Z,1.40
2023-01-22T10:46:46.506Z,1.40
2023-01-22T10:49:18.102Z,1.40
2023-01-22T10:51:55.356Z,1.40
2023-01-22T10:54:22.186Z,1.30
2023-01-22T10:56:49.615Z,1.40
2023-01-22T10:59:29.675Z,1.40
2023-01-22T11:01:58.464Z,1.40
2023-01-22T11:04:26.958Z,1.50
2023-01-22T11:06:56.069Z,1.50
2023-01-22T11:09:30.987Z,1.50
2023-01-22T11:12:01.489Z,1.60
2023-01-22T11:14:32.149Z,1.60
2023-01-22T11:17:01.969Z,1.60
2023-01-22T11:19:37.526Z,1.60
2023-01-22T11:22:15.318Z,1.60
2023-01-22T11:24:47.110Z,1.60
2023-01-22T11:27:25.561Z,1.60
2023-01-22T11:30:05.162Z,1.60
2023-01-22T11:32:50.764Z,1.60
2023-01-22T11:35:36.321Z,1.60
2023-01-22T11:38:26.561Z,1.60
2023-01-22T11:40:53.608Z,1.60
2023-01-22T11:43:23.360Z,1.60
2023-01-22T11:45:55.362Z,1.50
2023-01-22T11:48:22.030Z,1.60
2023-01-22T11:50:55.761Z,1.60
2023-01-22T11:53:25.454Z,1.60
2023-01-22T11:56:10.895Z,1.50
2023-01-22T11:58:43.890Z,1.50
2023-01-22T12:01:26.012Z,1.50
2023-01-22T12:03:58.476Z,1.50
2023-01-22T12:06:43.874Z,1.40
2023-01-22T12:09:29.363Z,1.50
2023-01-22T12:12:08.695Z,1.50
2023-01-22T12:14:39.725Z,1.60
2023-01-22T12:17:26.672Z,1.60
2023-01-22T12:20:09.625Z,1.70
2023-01-22T12:22:54.960Z,1.70
2023-01-22T12:25:29.777Z,1.60
2023-01-22T12:28:02.398Z,1.60
2023-01-22T12:30:34.037Z,1.60
2023-01-22T12:33:03.195Z,1.60
2023-01-22T12:35:31.603Z,1.60
2023-01-22T12:37:58.272Z,1.60
2023-01-22T12:40:31.960Z,1.60
2023-01-22T12:43:03.031Z,1.60
2023-01-22T12:45:53.667Z,1.60
2023-01-22T12:48:35.698Z,1.50
2023-01-22T12:51:02.436Z,1.50
2023-01-22T12:53:34.883Z,1.50
2023-01-22T12:56:03.267Z,1.50
2023-01-22T12:58:31.324Z,1.50
2023-01-22T13:01:01.229Z,1.50
2023-01-22T13:03:33.187Z,1.50
2023-01-22T13:06:01.361Z,1.40
2023-01-22T13:08:36.507Z,1.40
2023-01-22T13:11:07.892Z,1.40
2023-01-22T13:13:39.902Z,1.40
2023-01-22T13:16:16.436Z,1.40
2023-01-22T13:18:53.234Z,1.40
2023-01-22T13:21:33.216Z,1.40
2023-01-22T13:24:05.320Z,1.40
2023-01-22T13:26:33.947Z,1.30
2023-01-22T13:29:21.067Z,1.30
2023-01-22T13:31:58.316Z,1.30
2023-01-22T13:34:25.342Z,1.40
2023-01-22T13:36:52.134Z,1.50
2023-01-22T13:39:18.918Z,1.50
2023-01-22T13:41:47.739Z,1.50
2023-01-22T13:44:22.219Z,1.50
2023-01-22T13:46:49.536Z,1.50
2023-01-22T13:49:22.479Z,1.50
2023-01-22T13:51:49.842Z,1.50
2023-01-22T13:54:37.088Z,1.40
2023-01-22T13:57:05.507Z,1.40
2023-01-22T13:59:35.194Z,1.40
2023-01-22T14:02:21.522Z,1.40
2023-01-22T14:04:48.722Z,1.40
2023-01-22T14:07:29.382Z,1.40
2023-01-22T14:09:56.727Z,1.40
2023-01-22T14:12:25.871Z,1.40
2023-01-22T14:14:53.325Z,1.40
2023-01-22T14:17:31.062Z,1.40
2023-01-22T14:19:58.156Z,1.40
2023-01-22T14:22:25.266Z,1.40
2023-01-22T14:24:52.639Z,1.40
2023-01-22T14:27:23.793Z,1.30
2023-01-22T14:29:53.862Z,1.30
2023-01-22T14:32:21.445Z,1.20
2023-01-22T14:34:48.086Z,1.30
2023-01-22T14:37:18.081Z,1.20
2023-01-22T14:39:44.799Z,1.20
2023-01-22T14:42:11.451Z,1.10
2023-01-22T14:44:38.105Z,1.10
2023-01-22T14:47:04.845Z,1.10
2023-01-22T14:49:32.456Z,1.00
2023-01-22T14:51:59.139Z,1.00
2023-01-22T14:54:25.828Z,1.00
2023-01-22T14:56:52.621Z,1.00
2023-01-22T14:59:20.878Z,1.00
2023-01-22T15:01:47.920Z,1.00
2023-01-22T15:04:14.655Z,1.00
2023-01-22T15:06:41.347Z,1.00
2023-01-22T15:09:08.081Z,1.00
2023-01-22T15:11:34.707Z,1.00
2023-01-22T15:14:02.012Z,0.90
2023-01-22T15:16:29.842Z,0.90
2023-01-22T15:18:56.589Z,0.90
2023-01-22T15:21:23.365Z,0.90
2023-01-22T15:23:50.194Z,0.90
2023-01-22T15:26:23.090Z,0.90
2023-01-22T15:28:49.760Z,0.90
2023-01-22T15:31:16.417Z,0.90
2023-01-22T15:33:43.207Z,0.90
2023-01-22T15:36:10.264Z,0.90
2023-01-22T15:38:37.060Z,0.90
2023-01-22T15:41:20.920Z,0.90
2023-01-22T15:43:51.016Z,0.90
2023-01-22T15:46:18.552Z,0.90
2023-01-22T15:48:45.230Z,0.90
2023-01-22T15:51:12.706Z,0.90
2023-01-22T15:53:39.421Z,0.90
2023-01-22T15:56:06.808Z,0.90
2023-01-22T15:58:33.912Z,0.90
2023-01-22T16:01:00.962Z,0.80
2023-01-22T16:03:27.684Z,0.80
2023-01-22T16:05:54.402Z,0.80
2023-01-22T16:08:21.656Z,0.80
2023-01-22T16:10:48.359Z,0.80
2023-01-22T16:13:15.127Z,0.80
2023-01-22T16:15:41.756Z,0.80
2023-01-22T16:18:08.545Z,0.80
2023-01-22T16:20:35.249Z,0.80
2023-01-22T16:23:01.891Z,0.80
2023-01-22T16:25:28.543Z,0.80
2023-01-22T16:27:55.135Z,0.70
2023-01-22T16:30:21.967Z,0.80
2023-01-22T16:32:49.028Z,0.70
2023-01-22T16:35:15.718Z,0.70
2023-01-22T16:37:43.758Z,0.80
2023-01-22T16:40:10.858Z,0.70
2023-01-22T16:42:37.545Z,0.80
2023-01-22T16:45:04.399Z,0.80
2023-01-22T16:47:31.134Z,0.70
2023-01-22T16:49:57.754Z,0.70
2023-01-22T16:52:24.367Z,0.80
2023-01-22T16:54:51.101Z,0.80
2023-01-22T16:57:19.276Z,0.70
2023-01-22T16:59:46.202Z,0.80
2023-01-22T17:02:14.163Z,0.70
2023-01-22T17:04:40.872Z,0.70
2023-01-22T17:07:07.548Z,0.70
2023-01-22T17:09:35.836Z,0.70
2023-01-22T17:12:03.532Z,0.80
2023-01-22T17:14:31.095Z,0.80
2023-01-22T17:16:58.466Z,0.80
2023-01-22T17:19:25.318Z,0.80
2023-01-22T17:21:55.158Z,0.90
2023-01-22T17:24:22.404Z,0.80
2023-01-22T17:26:49.643Z,0.90
2023-01-22T17:29:16.804Z,0.80
2023-01-22T17:31:43.660Z,0.90
2023-01-22T17:34:11.643Z,0.90
2023-01-22T17:36:39.314Z,0.80
2023-01-22T17:39:06.230Z,0.80
2023-01-22T17:41:33.184Z,0.90
2023-01-22T17:44:00.351Z,0.90
2023-01-22T17:46:29.200Z,0.90
2023-01-22T17:48:56.167Z,0.90
2023-01-22T17:51:24.347Z,0.90
2023-01-22T17:53:51.834Z,0.90
2023-01-22T17:56:19.964Z,0.90
2023-01-22T17:58:50.134Z,0.90
2023-01-22T18:01:18.155Z,0.90
2023-01-22T18:03:45.451Z,0.90
2023-01-22T18:06:12.109Z,0.90
2023-01-22T18:08:39.884Z,0.90
2023-01-22T18:11:07.850Z,0.90
2023-01-22T18:13:35.156Z,0.90
2023-01-22T18:16:02.736Z,0.90
2023-01-22T18:18:29.666Z,0.90
2023-01-22T18:20:56.466Z,0.90
2023-01-22T18:23:23.396Z,0.90
2023-01-22T18:25:50.608Z,0.90
2023-01-22T18:28:18.079Z,0.90
2023-01-22T18:30:45.677Z,0.90
2023-01-22T18:33:14.771Z,0.90
2023-01-22T18:35:42.644Z,0.90
2023-01-22T18:38:09.520Z,0.90
2023-01-22T18:40:36.259Z,0.90
2023-01-22T18:43:06.022Z,0.90
2023-01-22T18:45:36.314Z,0.90
2023-01-22T18:48:03.168Z,0.90
2023-01-22T18:50:30.154Z,0.90
2023-01-22T18:52:56.910Z,0.90
2023-01-22T18:55:23.588Z,0.90
2023-01-22T18:57:54.653Z,0.90
2023-01-22T19:00:21.332Z,0.90
2023-01-22T19:02:55.212Z,0.90
2023-01-22T19:05:23.218Z,0.90
2023-01-22T19:07:50.355Z,0.90
2023-01-22T19:10:19.484Z,0.90
2023-01-22T19:12:46.940Z,0.90
2023-01-22T19:15:13.586Z,0.90
2023-01-22T19:17:40.376Z,0.90
2023-01-22T19:20:08.573Z,0.90
2023-01-22T19:22:38.647Z,0.90
2023-01-22T19:25:07.068Z,0.90
2023-01-22T19:27:33.785Z,0.90
2023-01-22T19:30:00.711Z,0.90
2023-01-22T19:32:28.655Z,0.90
2023-01-22T19:34:55.382Z,0.90
2023-01-22T19:37:22.364Z,0.90
2023-01-22T19:39:49.058Z,0.90
2023-01-22T19:42:17.069Z,0.90
2023-01-22T19:44:45.527Z,0.90
2023-01-22T19:47:12.400Z,0.90
2023-01-22T19:49:39.593Z,0.90
2023-01-22T19:52:06.544Z,0.90
2023-01-22T19:54:33.151Z,0.90
2023-01-22T19:56:59.895Z,0.90
2023-01-22T19:59:26.631Z,0.90
2023-01-22T20:01:53.705Z,0.90
2023-01-22T20:04:23.315Z,0.90
2023-01-22T20:06:51.747Z,0.90
2023-01-22T20:09:21.523Z,0.90
2023-01-22T20:11:54.976Z,0.90
2023-01-22T20:14:22.160Z,0.90
2023-01-22T20:16:49.062Z,0.90
2023-01-22T20:19:15.741Z,0.90
2023-01-22T20:21:42.560Z,0.90
2023-01-22T20:24:09.260Z,0.90
2023-01-22T20:26:36.216Z,0.90
2023-01-22T20:29:02.934Z,0.90
2023-01-22T20:31:29.722Z,0.90
2023-01-22T20:33:57.152Z,0.90
2023-01-22T20:36:24.810Z,0.90
2023-01-22T20:38:53.061Z,0.80
2023-01-22T20:41:20.625Z,0.90
2023-01-22T20:43:47.505Z,0.90
2023-01-22T20:46:16.569Z,0.80
2023-01-22T20:48:44.082Z,0.80
2023-01-22T20:51:16.051Z,0.80
2023-01-22T20:53:43.225Z,0.80
2023-01-22T20:56:12.769Z,0.80
2023-01-22T20:58:39.705Z,0.80
2023-01-22T21:01:07.912Z,0.80
2023-01-22T21:03:34.887Z,0.80
2023-01-22T21:06:06.096Z,0.80
2023-01-22T21:08:32.881Z,0.80
2023-01-22T21:11:00.739Z,0.80
2023-01-22T21:13:27.577Z,0.80
2023-01-22T21:15:54.412Z,0.80
2023-01-22T21:18:21.711Z,0.80
2023-01-22T21:20:48.820Z,0.80
2023-01-22T21:23:15.763Z,0.80
2023-01-22T21:25:42.579Z,0.80
2023-01-22T21:28:09.353Z,0.80
2023-01-22T21:30:36.366Z,0.80
2023-01-22T21:33:03.099Z,0.80
2023-01-22T21:35:29.914Z,0.80
2023-01-22T21:37:56.557Z,0.80
2023-01-22T21:40:23.324Z,0.80
2023-01-22T21:43:08.776Z,0.80
2023-01-22T21:45:57.601Z,0.90
2023-01-22T21:48:24.342Z,0.90
2023-01-22T21:50:51.018Z,0.90
2023-01-22T21:53:17.638Z,0.90
2023-01-22T21:55:51.367Z,0.90
2023-01-22T21:58:18.246Z,0.90
2023-01-22T22:00:44.981Z,0.90
2023-01-22T22:03:11.651Z,0.90
2023-01-22T22:05:40.014Z,0.90
2023-01-22T22:08:06.665Z,0.80
2023-01-22T22:10:33.298Z,0.80
2023-01-22T22:13:00.162Z,0.80
2023-01-22T22:15:27.238Z,0.80
2023-01-22T22:17:54.058Z,0.70
2023-01-22T22:20:20.986Z,0.70
2023-01-22T22:22:47.761Z,0.70
2023-01-22T22:25:14.480Z,0.70
2023-01-22T22:27:41.242Z,0.70
2023-01-22T22:30:08.634Z,0.70
2023-01-22T22:32:35.245Z,0.70
2023-01-22T22:35:02.104Z,0.60
2023-01-22T22:37:28.781Z,0.60
2023-01-22T22:39:55.525Z,0.60
2023-01-22T22:42:22.345Z,0.60
2023-01-22T22:44:48.983Z,0.60
2023-01-22T22:47:15.727Z,0.60
2023-01-22T22:49:42.634Z,0.60
2023-01-22T22:52:09.587Z,0.60
2023-01-22T22:54:36.263Z,0.60
2023-01-22T22:57:02.903Z,0.60
2023-01-22T22:59:29.571Z,0.60
2023-01-22T23:01:56.537Z,0.60
2023-01-22T23:04:23.422Z,0.60
2023-01-22T23:06:50.224Z,0.60
2023-01-22T23:09:19.421Z,0.60
2023-01-22T23:11:46.645Z,0.60
2023-01-22T23:14:13.293Z,0.60
2023-01-22T23:16:41.001Z,0.60
2023-01-22T23:19:18.080Z,0.60
2023-01-22T23:21:46.553Z,0.60
2023-01-22T23:24:14.006Z,0.50
2023-01-22T23:26:41.313Z,0.50
2023-01-22T23:29:09.652Z,0.50
2023-01-22T23:31:38.050Z,0.50
2023-01-22T23:34:06.707Z,0.40
2023-01-22T23:36:34.988Z,0.50
2023-01-22T23:39:02.719Z,0.40
2023-01-22T23:41:29.650Z,0.50
2023-01-22T23:43:56.420Z,0.50
2023-01-22T23:46:24.754Z,0.50
2023-01-22T23:48:51.606Z,0.50
2023-01-22T23:51:18.840Z,0.50
2023-01-22T23:53:51.665Z,0.60
2023-01-22T23:56:19.865Z,0.60
2023-01-22T23:58:46.678Z,0.60
